Time;durP1;ratioP1;P1;durP2;ratioP2;P2;SDS_P1;SDS_P2;PMS_P1;PMS_P2;Temp;Humidity;BMP_temperature;BMP_pressure;BME280_temperature;BME280_humidity;BME280_pressure;Samples;Min_cycle;Max_cycle;Signal;HPM_P1;HPM_P2
2021/08/07 00:02:33;;;;;;;3.55;2.67;;;15.80;99.90;;;14.73;100.00;101803.84;3616452;39;20577;-82
2021/08/07 00:05:44;;;;;;;2.60;2.15;;;15.80;99.90;;;14.76;100.00;101794.63;3614469;39;20391;-83
2021/08/07 00:08:56;;;;;;;2.47;2.28;;;15.70;99.90;;;14.71;100.00;101768.97;3608320;39;20534;-85
2021/08/07 00:12:07;;;;;;;3.63;2.30;;;15.70;99.90;;;14.71;100.00;101766.28;3610450;39;20254;-84
2021/08/07 00:15:19;;;;;;;2.42;1.90;;;15.70;99.90;;;14.68;100.00;101760.34;3615462;39;20242;-82
2021/08/07 00:18:33;;;;;;;4.93;2.03;;;15.70;99.90;;;14.63;100.00;101760.78;3685431;22;20267;-84
2021/08/07 00:21:45;;;;;;;5.82;1.92;;;15.70;99.90;;;14.61;100.00;101759.22;3616280;39;20279;-84
2021/08/07 00:24:56;;;;;;;2.10;1.77;;;15.70;99.90;;;14.57;100.00;101763.25;3611697;39;20629;-84
2021/08/07 00:28:08;;;;;;;4.78;2.28;;;15.60;99.90;;;14.50;100.00;101757.59;3609998;39;20626;-83
2021/08/07 00:31:20;;;;;;;2.38;1.95;;;15.60;99.90;;;14.45;100.00;101770.66;3603638;39;20491;-85
2021/08/07 00:34:34;;;;;;;3.33;2.42;;;15.60;99.90;;;14.38;100.00;101778.44;3609717;39;20872;-84
2021/08/07 00:37:47;;;;;;;2.67;2.08;;;15.60;99.90;;;14.43;100.00;101780.72;3606148;39;20261;-84
2021/08/07 00:40:59;;;;;;;2.70;2.05;;;15.50;99.90;;;14.38;100.00;101799.13;3650662;22;20495;-83
2021/08/07 00:44:11;;;;;;;2.80;2.42;;;15.50;99.90;;;14.39;100.00;101811.59;3650985;22;20242;-83
2021/08/07 00:47:23;;;;;;;5.68;2.47;;;15.50;99.90;;;14.35;100.00;101796.72;3605547;39;20936;-82
2021/08/07 00:50:41;;;;;;;3.88;2.65;;;15.90;99.90;;;14.29;100.00;101752.41;3612969;39;20486;-85
2021/08/07 00:53:56;;;;;;;2.95;2.03;;;15.40;99.90;;;14.24;100.00;101768.13;3615262;39;20255;-82
2021/08/07 00:57:09;;;;;;;2.53;1.98;;;15.40;99.90;;;14.26;100.00;101755.38;3612965;39;20250;-82
2021/08/07 01:00:23;;;;;;;3.53;2.05;;;15.50;99.90;;;14.26;100.00;101743.75;3622648;39;21002;-84
2021/08/07 01:03:56;;;;;;;2.20;1.77;;;15.30;99.90;;;14.16;100.00;101722.25;3688063;22;20285;-85
2021/08/07 01:07:29;;;;;;;1.52;1.42;;;15.30;99.90;;;14.17;100.00;101713.19;3583294;39;20323;-83
2021/08/07 01:10:50;;;;;;;1.77;1.65;;;15.30;99.90;;;14.10;100.00;101687.84;3592175;39;20731;-83
2021/08/07 01:14:08;;;;;;;3.60;2.28;;;15.30;99.90;;;14.14;100.00;101656.94;3582494;39;20233;-82
2021/08/07 01:17:24;;;;;;;2.05;1.73;;;15.20;99.90;;;14.10;100.00;101639.38;3637317;22;20681;-84
2021/08/07 01:20:44;;;;;;;2.25;2.00;;;15.20;99.90;;;13.98;100.00;101627.13;3626282;39;20703;-85
2021/08/07 01:24:11;;;;;;;3.80;1.95;;;15.20;99.90;;;13.99;100.00;101640.41;3605620;39;20581;-82
2021/08/07 01:27:45;;;;;;;2.90;2.00;;;15.10;99.90;;;13.87;100.00;101660.44;3656627;22;20496;-83
2021/08/07 01:31:02;;;;;;;2.33;1.85;;;15.10;99.90;;;13.82;100.00;101654.66;3637248;39;20268;-84
2021/08/07 01:34:16;;;;;;;2.47;1.40;;;15.10;99.90;;;13.80;100.00;101642.34;3628692;39;20725;-82
2021/08/07 01:37:30;;;;;;;1.35;1.23;;;15.00;99.90;;;13.86;100.00;101630.97;3641364;39;20322;-84
2021/08/07 01:40:59;;;;;;;1.67;1.52;;;15.00;99.90;;;13.78;100.00;101612.03;3664922;22;20561;-84
2021/08/07 01:44:13;;;;;;;1.85;1.60;;;15.00;99.90;;;13.79;100.00;101628.03;3612442;39;20329;-85
2021/08/07 01:47:34;;;;;;;1.63;1.38;;;14.90;99.90;;;13.76;100.00;101587.97;3600472;39;20303;-84
2021/08/07 01:50:56;;;;;;;1.60;1.50;;;14.90;99.90;;;13.76;100.00;101589.81;3606725;39;20364;-83
2021/08/07 01:54:14;;;;;;;1.50;1.40;;;14.90;99.90;;;13.65;100.00;101602.47;3606907;39;20254;-86
2021/08/07 01:57:34;;;;;;;5.40;1.95;;;14.40;99.90;;;13.78;100.00;101602.13;3661363;22;20331;-85
2021/08/07 02:00:50;;;;;;;2.63;1.98;;;14.90;99.90;;;13.61;100.00;101609.09;3617975;39;20250;-83
2021/08/07 02:04:13;;;;;;;1.90;1.70;;;14.80;99.90;;;13.62;100.00;101621.56;3621432;39;21613;-85
2021/08/07 02:07:30;;;;;;;1.67;1.58;;;14.80;99.90;;;13.63;100.00;101601.75;3622586;39;20294;-87
2021/08/07 02:10:44;;;;;;;2.00;1.65;;;14.80;99.90;;;13.62;100.00;101588.44;3019406;22;24529;-82
2021/08/07 02:13:59;;;;;;;2.25;1.77;;;14.80;99.90;;;13.59;100.00;101567.25;2631223;22;20403;-86
2021/08/07 02:17:14;;;;;;;2.38;1.40;;;14.80;99.90;;;13.65;100.00;101545.97;3666366;22;20486;-84
2021/08/07 02:19:52;;;;;;;1.92;1.70;;;14.80;99.90;;;13.69;100.00;101540.31;3864012;22;23149;-82
2021/08/07 02:22:58;;;;;;;1.93;1.70;;;14.70;99.90;;;13.64;100.00;101520.06;3767593;22;20603;-83
2021/08/07 02:25:38;;;;;;;2.47;1.90;;;14.70;99.90;;;13.57;100.00;101512.75;3476294;22;20339;-83
2021/08/07 02:28:19;;;;;;;1.63;1.53;;;14.70;99.90;;;13.54;100.00;101508.50;2375821;22;22675;-83
2021/08/07 02:30:48;;;;;;;1.77;1.52;;;14.60;99.90;;;13.44;100.00;101514.94;3888164;22;20259;-85
2021/08/07 02:33:48;;;;;;;4.47;1.90;;;14.60;99.90;;;13.51;100.00;101532.16;2914309;22;20974;-84
2021/08/07 02:36:25;;;;;;;3.30;1.63;;;14.50;99.90;;;13.46;100.00;101542.53;3927094;22;20984;-83
2021/08/07 02:39:00;;;;;;;2.63;1.63;;;14.50;99.90;;;13.42;100.00;101557.25;3047716;22;22925;-86
2021/08/07 02:41:29;;;;;;;5.73;1.90;;;14.50;99.90;;;13.46;100.00;101580.16;2140793;22;22450;-85
2021/08/07 02:43:59;;;;;;;2.07;1.87;;;14.50;99.90;;;13.41;100.00;101583.28;2815089;22;21516;-84
2021/08/07 02:46:28;;;;;;;4.37;1.40;;;14.50;99.90;;;13.34;100.00;101589.38;3820013;22;20292;-85
2021/08/07 02:52:02;;;;;;;2.67;1.47;;;14.40;99.90;;;13.25;100.00;101596.44;2242377;22;24765;-85
2021/08/07 02:54:39;;;;;;;2.07;1.87;;;14.40;99.90;;;13.20;100.00;101613.03;3690539;22;22473;-82
2021/08/07 02:57:06;;;;;;;2.03;1.57;;;14.40;99.90;;;13.24;100.00;101624.31;2086706;22;20335;-85
2021/08/07 02:59:34;;;;;;;1.90;1.77;;;14.30;99.90;;;13.19;100.00;101608.66;2219760;22;21377;-83
2021/08/07 03:02:01;;;;;;;1.70;1.60;;;14.30;99.90;;;13.20;100.00;101626.47;3260785;22;20295;31
2021/08/07 03:04:31;;;;;;;2.17;1.80;;;14.30;99.90;;;13.15;100.00;101627.88;2837378;22;20228;-84
2021/08/07 03:07:01;;;;;;;2.17;1.57;;;14.30;99.90;;;13.01;100.00;101650.59;2124869;22;20259;31
2021/08/07 03:09:30;;;;;;;2.10;1.90;;;15.30;99.90;;;12.99;100.00;101671.38;3780085;22;21004;-85
2021/08/07 03:12:34;;;;;;;2.27;2.03;;;14.20;99.90;;;12.94;100.00;101698.69;3274492;22;25225;-85
2021/08/07 03:15:47;;;;;;;1.93;1.77;;;14.10;99.90;;;12.93;100.00;101674.66;3585409;22;20234;-85
2021/08/07 03:18:26;;;;;;;1.70;1.60;;;14.10;99.90;;;12.93;100.00;101686.25;2242482;22;25236;-83
2021/08/07 03:23:34;;;;;;;2.23;2.03;;;14.00;99.90;;;12.84;100.00;101722.00;2796662;22;101486;-85
2021/08/07 03:26:04;;;;;;;1.97;1.77;;;14.00;99.90;;;12.83;100.00;101736.44;3982915;22;20515;-86
2021/08/07 03:28:32;;;;;;;2.40;2.00;;;13.70;99.90;;;12.85;100.00;101747.88;3552082;22;20232;-84
2021/08/07 03:30:59;;;;;;;2.30;2.00;;;14.00;99.90;;;12.83;100.00;101749.00;3984567;22;22173;-84
2021/08/07 03:33:33;;;;;;;1.80;1.70;;;13.90;99.90;;;12.81;100.00;101753.66;2521678;22;25030;-83
2021/08/07 03:36:36;;;;;;;2.10;1.73;;;13.90;99.90;;;12.73;100.00;101751.66;2785221;22;20226;-85
2021/08/07 03:39:16;;;;;;;3.47;2.30;;;14.70;99.90;;;12.67;100.00;101780.88;3007551;22;22641;-86
2021/08/07 03:41:47;;;;;;;1.50;1.40;;;13.90;99.90;;;12.68;100.00;101804.94;3813425;22;20227;-83
2021/08/07 03:44:15;;;;;;;2.07;1.70;;;13.50;99.90;;;12.60;100.00;101831.63;3951666;22;21514;-86
2021/08/07 03:46:43;;;;;;;2.40;1.47;;;14.40;99.90;;;12.58;100.00;101863.13;4050351;22;23937;-83
2021/08/07 03:49:11;;;;;;;2.17;1.97;;;13.90;99.90;;;12.55;100.00;101887.53;3938105;22;20222;-86
2021/08/07 03:52:20;;;;;;;2.63;2.03;;;13.90;99.90;;;12.74;100.00;101898.38;4023873;22;22254;-87
2021/08/07 03:55:01;;;;;;;1.57;1.30;;;14.00;99.90;;;12.67;100.00;101899.91;2867624;22;20301;-86
2021/08/07 03:57:29;;;;;;;2.00;1.63;;;13.90;99.90;;;12.73;100.00;101930.75;3306171;22;22190;-86
2021/08/07 04:00:34;;;;;;;3.20;1.60;;;13.80;99.90;;;12.70;100.00;101937.25;2853619;22;20225;-87
2021/08/07 04:03:12;;;;;;;1.80;1.70;;;13.90;99.90;;;12.92;100.00;101937.09;3674967;22;21948;-84
2021/08/07 04:05:39;;;;;;;3.60;2.30;;;13.90;99.90;;;12.91;100.00;101918.41;2420462;22;24249;-85
2021/08/07 04:08:09;;;;;;;1.93;1.80;;;13.90;99.90;;;12.88;100.00;101894.50;3072558;22;24178;-87
2021/08/07 04:10:40;;;;;;;1.80;1.40;;;13.90;99.90;;;12.85;100.00;101860.72;3164432;22;22446;-87
2021/08/07 04:13:44;;;;;;;1.77;1.60;;;13.90;99.90;;;12.84;100.00;101844.72;3549533;22;20276;-83
2021/08/07 04:16:20;;;;;;;1.93;1.73;;;13.90;99.90;;;12.81;100.00;101818.97;3485219;22;26840;-87
2021/08/07 04:18:49;;;;;;;1.83;1.63;;;13.90;99.90;;;12.87;100.00;101812.19;3969335;22;22194;-84
2021/08/07 04:21:54;;;;;;;1.70;1.17;;;13.70;99.90;;;12.92;100.00;101745.47;3086594;22;25118;-85
2021/08/07 04:24:33;;;;;;;2.47;1.80;;;14.60;99.90;;;13.06;100.00;101693.19;3123182;22;22412;-86
2021/08/07 04:27:01;;;;;;;1.70;1.60;;;13.90;99.90;;;13.19;100.00;101622.09;3661160;22;20340;-86
2021/08/07 04:29:29;;;;;;;1.73;1.40;;;14.00;99.90;;;13.31;100.00;101547.50;3637743;39;21140;-84
2021/08/07 04:31:58;;;;;;;2.77;1.90;;;14.00;99.90;;;13.38;100.00;101454.50;3785219;22;21000;-83
2021/08/07 04:34:25;;;;;;;2.17;1.70;;;14.10;99.90;;;13.59;100.00;101354.78;3728719;22;20246;-86
2021/08/07 04:36:53;;;;;;;2.20;1.63;;;14.10;99.90;;;13.65;100.00;101254.66;3358170;22;20248;31
2021/08/07 04:39:22;;;;;;;2.57;1.73;;;14.10;99.90;;;13.77;100.00;101182.66;2031918;22;20298;-86
2021/08/07 04:41:50;;;;;;;2.07;1.87;;;14.20;99.90;;;13.99;100.00;101158.75;3543346;22;23828;-86
2021/08/07 04:44:20;;;;;;;8.30;2.00;;;14.50;99.90;;;14.20;100.00;101111.78;2478323;22;24754;-86
2021/08/07 04:46:47;;;;;;;2.47;2.13;;;14.40;99.90;;;14.39;100.00;101065.72;4024888;22;22337;-84
2021/08/07 04:49:15;;;;;;;1.97;1.70;;;14.40;99.90;;;14.49;100.00;101022.53;3860094;22;21485;31
2021/08/07 04:51:42;;;;;;;2.27;2.03;;;15.70;99.90;;;14.45;100.00;100987.03;3994668;22;20267;-84
2021/08/07 04:54:46;;;;;;;4.27;1.63;;;14.60;99.90;;;14.56;100.00;100935.53;3770492;22;21725;-86
2021/08/07 04:57:58;;;;;;;4.13;1.90;;;15.60;99.90;;;14.64;100.00;100899.69;3356685;22;20361;-85
2021/08/07 05:01:13;;;;;;;1.80;1.70;;;14.80;99.90;;;14.61;100.00;100875.75;3606391;39;20491;-85
2021/08/07 05:03:51;;;;;;;2.07;1.87;;;15.00;99.90;;;14.59;100.00;100849.00;3788594;22;20755;-85
2021/08/07 05:06:19;;;;;;;3.10;2.20;;;15.10;99.90;;;14.72;100.00;100867.34;3749745;22;22406;-84
2021/08/07 05:09:22;;;;;;;6.63;2.10;;;15.10;99.90;;;14.86;100.00;100850.47;3853212;22;20475;-87
2021/08/07 05:12:28;;;;;;;2.20;1.75;;;15.30;99.90;;;15.06;100.00;100854.47;3721024;22;20376;-85
2021/08/07 05:14:55;;;;;;;2.13;1.92;;;15.40;99.90;;;15.02;100.00;100822.66;3708595;22;20290;-83
2021/08/07 05:17:26;;;;;;;2.65;1.73;;;16.40;99.90;;;14.94;100.00;100820.81;3605448;39;20373;-86
2021/08/07 05:19:54;;;;;;;2.00;1.42;;;15.60;99.90;;;15.16;100.00;100819.22;3606916;39;20852;-84
2021/08/07 05:22:23;;;;;;;2.58;1.58;;;16.40;99.90;;;15.32;100.00;100819.16;3606214;39;20232;-85
2021/08/07 05:24:53;;;;;;;1.45;1.23;;;15.80;99.90;;;15.10;100.00;100801.88;3598639;39;20241;-84
2021/08/07 05:27:23;;;;;;;1.85;1.05;;;15.90;99.90;;;15.35;100.00;100791.81;3599242;39;20236;-87
2021/08/07 05:30:26;;;;;;;2.15;1.38;;;16.00;99.90;;;15.39;100.00;100785.06;3647852;22;20262;-82
2021/08/07 05:33:40;;;;;;;1.40;1.30;;;16.20;99.90;;;15.86;100.00;100783.25;3659280;22;20248;-86
2021/08/07 05:36:16;;;;;;;4.32;1.55;;;16.30;99.90;;;16.12;100.00;100749.47;3691748;22;20266;-85
2021/08/07 05:41:34;;;;;;;1.25;1.10;;;16.70;99.90;;;16.47;100.00;100722.78;3568981;39;20270;-85
2021/08/07 05:44:02;;;;;;;1.40;1.30;;;16.90;99.90;;;16.39;100.00;100674.28;3637176;22;20294;-83
2021/08/07 05:46:30;;;;;;;2.03;1.33;;;17.10;99.90;;;16.57;100.00;100638.78;3850213;22;20249;-82
2021/08/07 05:49:01;;;;;;;3.35;1.30;;;17.20;99.90;;;16.77;100.00;100589.38;3666601;22;20242;-87
2021/08/07 05:51:28;;;;;;;6.45;0.95;;;18.50;99.90;;;16.88;100.00;100552.91;3151856;22;20268;-84
2021/08/07 05:53:56;;;;;;;1.88;0.98;;;18.70;99.90;;;16.85;100.00;100491.97;3717355;22;20228;-86
2021/08/07 05:57:02;;;;;;;3.50;0.77;;;17.00;99.90;;;16.95;100.00;100453.78;3943300;22;20279;-87
2021/08/07 05:59:39;;;;;;;0.70;0.70;;;17.90;99.90;;;16.99;100.00;100400.19;3479883;22;20255;-86
2021/08/07 06:02:07;;;;;;;1.13;0.52;;;18.80;99.90;;;16.85;100.00;100358.72;3788610;22;20434;-88
2021/08/07 06:04:36;;;;;;;5.65;1.17;;;18.00;99.90;;;16.93;100.00;100338.81;3040172;22;22622;-87
2021/08/07 06:07:05;;;;;;;0.73;0.73;;;18.30;99.90;;;16.97;100.00;100331.97;2304414;22;27137;-84
2021/08/07 06:12:07;;;;;;;1.67;0.93;;;18.50;99.90;;;17.08;100.00;100277.34;3775714;22;22657;-83
2021/08/07 06:14:38;;;;;;;1.15;1.00;;;18.60;99.90;;;17.03;100.00;100240.13;3929467;22;22216;-88
2021/08/07 06:17:32;;;;;;;0.98;0.90;;;18.20;99.90;;;17.28;100.00;100228.78;2112460;22;25479;-87
2021/08/07 06:20:12;;;;;;;1.13;1.02;;;18.90;99.90;;;17.45;100.00;100193.03;2808240;22;20249;-86
2021/08/07 06:22:45;;;;;;;1.30;0.75;;;18.90;99.90;;;17.20;100.00;100170.28;3772974;22;22929;-82
2021/08/07 06:25:13;;;;;;;0.68;0.50;;;19.00;99.90;;;17.23;100.00;100145.53;3209289;22;20693;-85
2021/08/07 06:27:41;;;;;;;1.20;0.70;;;19.10;99.90;;;17.46;100.00;100159.53;3592429;39;20232;-87
2021/08/07 06:30:10;;;;;;;1.88;0.70;;;19.20;99.90;;;17.80;100.00;100160.44;3513013;22;21498;-86
2021/08/07 06:32:38;;;;;;;2.70;0.85;;;19.30;99.90;;;17.84;100.00;100153.53;3637067;22;20451;-86
2021/08/07 06:35:06;;;;;;;0.82;0.65;;;20.30;99.90;;;17.76;100.00;100145.66;3706224;22;23272;-86
2021/08/07 06:37:35;;;;;;;0.73;0.73;;;19.50;99.90;;;17.58;100.00;100133.53;3714296;22;20461;-86
2021/08/07 06:40:05;;;;;;;0.65;0.50;;;19.70;99.90;;;17.85;100.00;100147.09;3608077;39;20518;-82
2021/08/07 06:42:32;;;;;;;1.90;0.95;;;19.80;99.90;;;18.11;100.00;100136.25;3597126;39;20351;-83
2021/08/07 06:45:01;;;;;;;0.95;0.75;;;19.90;99.90;;;18.14;100.00;100095.22;3630628;22;20243;-86
2021/08/07 06:47:29;;;;;;;0.85;0.50;;;19.80;99.90;;;18.11;100.00;100078.56;3638909;22;20402;-83
2021/08/07 06:49:57;;;;;;;0.47;0.40;;;20.20;99.90;;;18.39;100.00;100062.84;3606014;39;20299;-86
2021/08/07 06:52:24;;;;;;;1.02;0.77;;;20.30;99.90;;;18.32;100.00;100053.91;3597216;39;20656;-84
2021/08/07 06:54:53;;;;;;;4.72;0.93;;;20.50;99.90;;;18.60;100.00;100040.88;3608699;39;20343;-84
2021/08/07 06:57:22;;;;;;;1.05;0.73;;;20.60;99.90;;;18.47;100.00;100011.13;3597712;39;20566;-85
2021/08/07 06:59:52;;;;;;;0.73;0.60;;;20.70;99.90;;;18.49;100.00;99990.06;3759534;22;21478;31
2021/08/07 07:02:21;;;;;;;1.45;0.60;;;20.90;99.90;;;18.24;100.00;99957.47;3388733;22;20656;-83
2021/08/07 07:04:49;;;;;;;0.50;0.50;;;21.00;99.90;;;18.63;100.00;99969.19;3621001;22;20251;-85
2021/08/07 07:07:18;;;;;;;1.23;0.85;;;20.40;99.90;;;18.53;100.00;99949.84;3665604;22;20251;-86
2021/08/07 07:09:46;;;;;;;0.70;0.60;;;21.10;99.90;;;18.60;100.00;99935.22;2982429;22;20956;-87
2021/08/07 07:12:51;;;;;;;0.50;0.50;;;22.20;99.90;;;18.82;100.00;99942.97;3690434;22;20648;-85
2021/08/07 07:17:55;;;;;;;1.88;0.70;;;21.50;99.90;;;18.71;100.00;99878.63;3685238;22;21188;-82
2021/08/07 07:20:23;;;;;;;0.40;0.30;;;21.70;99.90;;;18.92;100.00;99878.25;3467311;22;20986;-82
2021/08/07 07:22:51;;;;;;;0.60;0.60;;;21.70;99.90;;;19.13;100.00;99858.03;3518098;22;22525;-85
2021/08/07 07:25:20;;;;;;;0.63;0.63;;;22.80;99.90;;;19.47;100.00;99851.19;3596105;39;20589;-87
2021/08/07 07:27:50;;;;;;;0.38;0.38;;;21.90;99.90;;;18.93;100.00;99760.63;3658058;22;20582;-85
2021/08/07 07:30:19;;;;;;;1.23;0.65;;;21.80;99.90;;;19.05;100.00;99725.44;3596604;22;20242;-83
2021/08/07 07:32:46;;;;;;;0.88;0.40;;;22.00;99.90;;;18.87;100.00;99686.47;3587839;39;20262;-83
2021/08/07 07:35:13;;;;;;;0.70;0.60;;;22.00;99.90;;;18.76;100.00;99699.94;3589909;39;20249;-85
2021/08/07 07:37:41;;;;;;;3.00;0.50;;;22.00;99.90;;;19.07;100.00;99716.03;3572817;39;20486;-81
2021/08/07 07:40:10;;;;;;;0.95;0.68;;;22.00;99.90;;;19.01;100.00;99698.81;3579842;39;20689;-85
2021/08/07 07:42:38;;;;;;;0.30;0.30;;;22.80;99.90;;;19.02;100.00;99703.19;3579906;39;20259;-85
2021/08/07 07:45:10;;;;;;;3.53;0.68;;;22.00;99.90;;;19.21;100.00;99703.16;3663267;22;20260;-85
2021/08/07 07:47:40;;;;;;;0.57;0.57;;;21.90;99.90;;;19.12;100.00;99680.94;3582630;39;20334;-85
2021/08/07 07:50:12;;;;;;;0.80;0.70;;;22.70;99.90;;;19.32;100.00;99669.81;3575851;39;20639;-85
2021/08/07 07:52:42;;;;;;;3.88;0.63;;;22.00;99.90;;;19.43;100.00;99639.19;3571853;39;21015;-85
2021/08/07 07:55:10;;;;;;;0.63;0.38;;;22.80;99.90;;;19.63;100.00;99599.06;3581494;39;20691;-84
2021/08/07 07:57:42;;;;;;;0.40;0.40;;;22.20;99.90;;;20.32;100.00;99564.81;3573672;39;20288;-83
2021/08/07 08:00:12;;;;;;;0.47;0.47;;;22.40;99.90;;;20.23;100.00;99448.63;3570148;39;20241;-86
2021/08/07 08:02:53;;;;;;;0.50;0.40;;;22.60;99.90;;;20.32;100.00;99273.28;3566061;39;20340;-80
2021/08/07 08:05:28;;;;;;;1.67;0.47;;;22.90;99.90;;;19.94;100.00;99925.63;3584545;39;20249;-82
2021/08/07 08:07:57;;;;;;;0.55;0.55;;;23.20;99.90;;;20.00;100.00;99939.13;3564875;39;20257;-84
2021/08/07 08:10:25;;;;;;;0.70;0.47;;;23.00;99.90;;;19.71;100.00;99919.00;3570484;39;20245;-81
2021/08/07 08:12:52;;;;;;;0.20;0.20;;;22.90;99.90;;;19.64;100.00;99929.13;3567809;39;20549;-82
2021/08/07 08:15:21;;;;;;;0.60;0.60;;;23.80;99.90;;;19.73;100.00;99929.63;3569270;39;20336;-83
2021/08/07 08:17:49;;;;;;;0.20;0.20;;;22.90;99.90;;;19.80;100.00;99938.53;3578639;39;20286;-82
2021/08/07 08:20:17;;;;;;;0.40;0.40;;;23.70;99.90;;;20.28;100.00;99949.41;3569836;39;20753;-84
2021/08/07 08:22:44;;;;;;;0.52;0.52;;;24.00;99.90;;;20.77;100.00;99932.00;3571120;39;20299;-81
2021/08/07 08:25:11;;;;;;;0.20;0.20;;;23.30;99.90;;;20.79;100.00;99927.16;3567396;39;20725;-83
2021/08/07 08:27:41;;;;;;;0.50;0.50;;;23.50;99.90;;;20.99;100.00;99934.19;3573287;39;20237;-83
2021/08/07 08:30:10;;;;;;;1.98;0.60;;;23.60;99.90;;;21.03;100.00;99898.09;3582543;39;20295;-82
2021/08/07 08:32:39;;;;;;;2.67;0.52;;;23.80;99.90;;;20.74;100.00;99880.81;3571358;39;20343;-83
2021/08/07 08:35:08;;;;;;;2.25;0.50;;;24.00;99.90;;;20.88;100.00;99869.72;3582175;39;20492;-81
2021/08/07 08:37:35;;;;;;;0.57;0.32;;;24.20;99.90;;;21.10;100.00;99862.63;3576095;39;20617;-82
2021/08/07 08:40:03;;;;;;;0.73;0.55;;;24.30;99.70;;;20.92;100.00;99860.84;3580087;39;20260;-81
2021/08/07 08:42:33;;;;;;;0.40;0.40;;;24.40;98.90;;;20.76;100.00;99862.41;3568218;39;20291;-82
2021/08/07 08:45:01;;;;;;;1.38;0.63;;;24.60;98.70;;;20.66;100.00;99862.13;3575514;39;20461;-85
2021/08/07 08:47:28;;;;;;;0.95;0.30;;;24.90;97.20;;;20.44;100.00;99867.28;3571980;39;20276;-81
2021/08/07 08:49:57;;;;;;;0.20;0.20;;;24.50;94.60;;;20.65;100.00;99884.91;3570160;39;20267;-83
2021/08/07 08:52:29;;;;;;;3.53;0.55;;;25.40;94.50;;;20.59;100.00;99887.75;3567502;39;21377;-85
2021/08/07 08:54:58;;;;;;;0.50;0.40;;;25.60;94.50;;;21.05;100.00;99882.38;3569035;39;20847;-82
2021/08/07 08:57:25;;;;;;;1.75;0.60;;;25.10;94.80;;;20.85;100.00;99876.47;3572070;39;20443;-85
2021/08/07 08:59:53;;;;;;;0.13;0.10;;;24.70;93.40;;;20.52;100.00;99838.97;3570671;39;20245;-85
2021/08/07 09:02:20;;;;;;;1.50;0.60;;;25.00;91.40;;;21.15;100.00;99830.91;3571912;39;20522;-84
2021/08/07 09:04:48;;;;;;;0.30;0.30;;;25.60;92.80;;;21.05;100.00;99817.09;3586337;39;20237;-83
2021/08/07 09:07:19;;;;;;;0.20;0.20;;;25.60;91.70;;;21.27;100.00;99795.56;3577176;39;20387;-81
2021/08/07 09:09:53;;;;;;;0.38;0.38;;;25.40;92.10;;;21.36;100.00;99782.44;3573215;39;20754;-85
2021/08/07 09:12:38;;;;;;;0.20;0.20;;;25.70;92.10;;;20.82;100.00;99781.75;3584517;39;20357;-80
2021/08/07 09:15:23;;;;;;;0.35;0.35;;;25.10;90.00;;;21.28;100.00;99802.66;3576732;39;20752;-84
2021/08/07 09:17:51;;;;;;;0.13;0.13;;;25.00;89.50;;;21.47;100.00;99792.44;3576166;39;20556;-80
2021/08/07 09:20:28;;;;;;;0.15;0.15;;;25.00;88.00;;;21.65;100.00;99778.66;3574272;39;20263;-79
2021/08/07 09:22:58;;;;;;;0.20;0.20;;;26.00;89.20;;;21.27;100.00;99773.78;3575289;39;20653;-81
2021/08/07 09:25:26;;;;;;;1.38;0.40;;;25.00;85.50;;;21.14;100.00;99766.69;3570466;39;20272;-81
2021/08/07 09:27:54;;;;;;;0.35;0.35;;;25.00;84.10;;;21.55;100.00;99764.84;3576852;39;20273;-84
2021/08/07 09:30:30;;;;;;;0.30;0.30;;;25.00;84.10;;;21.92;100.00;99745.38;3583221;39;20749;-84
2021/08/07 09:33:04;;;;;;;1.98;0.55;;;25.00;84.90;;;21.57;100.00;99707.44;3584069;39;20312;-81
2021/08/07 09:35:37;;;;;;;0.88;0.43;;;25.10;80.90;;;21.76;100.00;99696.06;3568085;40;20974;-80
2021/08/07 09:38:19;;;;;;;1.00;0.47;;;25.40;81.20;;;21.70;100.00;99666.28;3578710;39;20775;-82
2021/08/07 09:40:57;;;;;;;0.28;0.28;;;25.20;79.70;;;22.10;100.00;99617.97;3566672;39;20264;-85
2021/08/07 09:43:32;;;;;;;1.67;0.95;;;25.20;79.90;;;22.07;100.00;99672.97;3590080;39;20248;-84
2021/08/07 09:46:06;;;;;;;1.77;0.93;;;25.30;79.50;;;21.88;100.00;99665.25;3586302;39;20244;-85
2021/08/07 09:48:39;;;;;;;0.73;0.52;;;26.20;79.50;;;21.52;100.00;99551.09;3580853;39;20264;-81
2021/08/07 09:51:19;;;;;;;0.22;0.22;;;25.40;77.40;;;21.04;100.00;99747.44;3580336;39;20264;-81
2021/08/07 09:54:05;;;;;;;0.82;0.50;;;25.70;74.70;;;21.75;100.00;99784.31;3570669;39;20421;-85
2021/08/07 09:56:50;;;;;;;0.60;0.40;;;25.20;76.90;;;21.62;100.00;99779.16;3574777;39;20809;-81
2021/08/07 09:59:23;;;;;;;0.90;0.40;;;26.00;76.00;;;21.84;100.00;99774.69;3581669;39;20603;-82
2021/08/07 10:01:53;;;;;;;1.35;0.50;;;25.30;77.00;;;22.33;100.00;99774.19;3568304;39;20256;-86
2021/08/07 10:04:22;;;;;;;0.45;0.30;;;25.40;78.30;;;22.17;100.00;99738.50;3568885;39;20263;-83
2021/08/07 10:07:07;;;;;;;0.63;0.40;;;25.60;77.10;;;21.93;100.00;99719.78;3591884;39;20320;-83
2021/08/07 10:09:37;;;;;;;0.57;0.40;;;25.70;75.90;;;22.11;100.00;99698.63;3580141;39;20298;-84
2021/08/07 10:12:12;;;;;;;0.25;0.25;;;25.90;73.70;;;22.68;100.00;99670.31;3575331;39;20275;-81
2021/08/07 10:14:44;;;;;;;0.68;0.60;;;26.50;74.50;;;22.58;100.00;99649.19;3575311;39;20598;-82
2021/08/07 10:17:14;;;;;;;0.55;0.30;;;26.40;74.10;;;22.78;100.00;99626.84;3571077;39;86063;-81
2021/08/07 10:19:43;;;;;;;0.80;0.45;;;27.20;73.50;;;22.64;100.00;99617.34;3548083;39;100325;-82
2021/08/07 10:22:14;;;;;;;0.40;0.30;;;26.80;71.80;;;22.98;100.00;99640.75;3531612;39;102247;-82
2021/08/07 10:24:55;;;;;;;0.22;0.22;;;27.00;70.30;;;22.94;100.00;99609.59;3520849;39;102334;-83
2021/08/07 10:27:30;;;;;;;0.73;0.40;;;27.30;70.10;;;23.63;100.00;99586.00;3522219;39;100344;-85
2021/08/07 10:30:03;;;;;;;1.05;0.40;;;28.40;70.70;;;23.79;100.00;99580.66;3518953;39;101572;-85
2021/08/07 10:32:38;;;;;;;0.93;0.25;;;28.00;69.20;;;23.39;100.00;99551.91;3514382;39;103324;-80
2021/08/07 10:35:09;;;;;;;0.50;0.35;;;28.40;67.40;;;23.55;100.00;99540.06;3564006;39;102312;-80
2021/08/07 10:37:38;;;;;;;0.20;0.20;;;28.70;65.50;;;23.68;100.00;99502.47;3567187;39;20256;-85
2021/08/07 10:40:11;;;;;;;2.85;0.30;;;29.00;64.30;;;23.92;100.00;99484.59;3615222;22;20269;-86
2021/08/07 10:42:39;;;;;;;0.40;0.38;;;29.30;62.60;;;23.58;100.00;99465.81;3573638;39;20240;-84
2021/08/07 10:45:09;;;;;;;0.20;0.20;;;29.30;59.40;;;23.67;100.00;99457.94;3567235;39;20260;-83
2021/08/07 10:47:42;;;;;;;0.20;0.20;;;29.40;58.30;;;23.26;100.00;99443.16;3570309;39;20592;-80
2021/08/07 10:50:38;;;;;;;0.20;0.10;;;29.40;56.20;;;23.79;100.00;99435.91;3583973;39;20988;-84
2021/08/07 10:53:38;;;;;;;0.38;0.30;;;29.40;56.50;;;23.27;100.00;99420.25;3577347;39;20314;-83
2021/08/07 10:56:08;;;;;;;0.22;0.22;;;29.40;54.60;;;23.48;100.00;99416.59;3586675;39;20425;-80
2021/08/07 10:58:43;;;;;;;0.10;0.10;;;29.30;55.70;;;23.76;100.00;99400.91;3586034;39;20653;-81
2021/08/07 11:01:33;;;;;;;0.32;0.15;;;29.30;55.10;;;23.66;100.00;99381.75;3573853;39;20408;-81
2021/08/07 11:04:08;;;;;;;0.30;0.30;;;29.30;54.10;;;23.26;100.00;99377.66;3582559;39;20452;-81
2021/08/07 11:07:10;;;;;;;0.22;0.22;;;29.10;53.40;;;23.34;100.00;99365.44;3596054;39;20356;-84
2021/08/07 11:09:40;;;;;;;0.20;0.15;;;29.10;54.90;;;23.58;100.00;99367.53;3578609;39;21185;-86
2021/08/07 11:12:31;;;;;;;0.17;0.17;;;28.80;54.80;;;23.72;100.00;99372.50;3582071;39;20264;-85
2021/08/07 11:15:30;;;;;;;0.40;0.35;;;28.90;54.60;;;23.73;100.00;99363.22;3579344;39;20452;-88
2021/08/07 11:17:58;;;;;;;0.20;0.20;;;29.30;54.70;;;23.98;100.00;99363.31;3579131;39;20761;-81
2021/08/07 11:20:43;;;;;;;0.98;0.32;;;29.20;54.70;;;24.19;100.00;99356.00;3580299;39;20984;-82
2021/08/07 11:23:15;;;;;;;0.15;0.15;;;29.40;54.30;;;23.99;100.00;99357.56;3584884;39;20656;-82